sensor_id;sensor_type;location;lat;lon;timestamp;temperature;humidity
40670;DHT22;26355;45.528;9.234;2023-03-23T00:01:21;18.20;92.10
40670;DHT22;26355;45.528;9.234;2023-03-23T00:03:49;18.20;92.20
40670;DHT22;26355;45.528;9.234;2023-03-23T00:06:17;18.20;92.20
40670;DHT22;26355;45.528;9.234;2023-03-23T00:08:47;18.20;92.20
40670;DHT22;26355;45.528;9.234;2023-03-23T00:11:20;18.20;92.30
40670;DHT22;26355;45.528;9.234;2023-03-23T00:13:47;18.20;92.40
40670;DHT22;26355;45.528;9.234;2023-03-23T00:16:16;18.10;92.40
40670;DHT22;26355;45.528;9.234;2023-03-23T00:18:51;18.10;92.50
40670;DHT22;26355;45.528;9.234;2023-03-23T00:21:19;18.00;92.80
40670;DHT22;26355;45.528;9.234;2023-03-23T00:23:44;18.10;92.70
40670;DHT22;26355;45.528;9.234;2023-03-23T00:26:11;18.10;92.80
40670;DHT22;26355;45.528;9.234;2023-03-23T00:28:38;18.00;92.80
40670;DHT22;26355;45.528;9.234;2023-03-23T00:31:06;18.00;92.90
40670;DHT22;26355;45.528;9.234;2023-03-23T00:33:34;17.90;93.00
40670;DHT22;26355;45.528;9.234;2023-03-23T00:36:13;17.80;93.10
40670;DHT22;26355;45.528;9.234;2023-03-23T00:38:40;17.80;93.20
40670;DHT22;26355;45.528;9.234;2023-03-23T00:41:07;18.00;93.20
40670;DHT22;26355;45.528;9.234;2023-03-23T00:43:33;17.80;93.20
40670;DHT22;26355;45.528;9.234;2023-03-23T00:46:01;17.80;93.20
40670;DHT22;26355;45.528;9.234;2023-03-23T00:48:29;17.80;93.30
40670;DHT22;26355;45.528;9.234;2023-03-23T00:50:55;17.80;93.40
40670;DHT22;26355;45.528;9.234;2023-03-23T00:53:21;17.80;93.40
40670;DHT22;26355;45.528;9.234;2023-03-23T00:55:48;17.80;93.40
40670;DHT22;26355;45.528;9.234;2023-03-23T00:58:15;17.80;93.40
40670;DHT22;26355;45.528;9.234;2023-03-23T01:00:41;17.90;93.40
40670;DHT22;26355;45.528;9.234;2023-03-23T01:03:09;17.80;93.40
40670;DHT22;26355;45.528;9.234;2023-03-23T01:05:38;17.80;93.50
40670;DHT22;26355;45.528;9.234;2023-03-23T01:08:05;17.80;93.50
40670;DHT22;26355;45.528;9.234;2023-03-23T01:10:32;17.80;93.60
40670;DHT22;26355;45.528;9.234;2023-03-23T01:13:00;17.70;93.80
40670;DHT22;26355;45.528;9.234;2023-03-23T01:15:27;17.70;93.80
40670;DHT22;26355;45.528;9.234;2023-03-23T01:17:53;17.70;93.80
40670;DHT22;26355;45.528;9.234;2023-03-23T01:20:18;17.70;93.80
40670;DHT22;26355;45.528;9.234;2023-03-23T01:22:44;17.70;93.80
40670;DHT22;26355;45.528;9.234;2023-03-23T01:25:11;17.70;93.80
40670;DHT22;26355;45.528;9.234;2023-03-23T01:27:39;17.60;93.80
40670;DHT22;26355;45.528;9.234;2023-03-23T01:30:07;17.70;93.80
40670;DHT22;26355;45.528;9.234;2023-03-23T01:32:34;17.70;93.80
40670;DHT22;26355;45.528;9.234;2023-03-23T01:34:59;17.60;93.90
40670;DHT22;26355;45.528;9.234;2023-03-23T01:37:25;17.60;93.90
40670;DHT22;26355;45.528;9.234;2023-03-23T01:39:55;17.60;93.90
40670;DHT22;26355;45.528;9.234;2023-03-23T01:42:29;17.60;94.10
40670;DHT22;26355;45.528;9.234;2023-03-23T01:47:40;17.50;94.10
40670;DHT22;26355;45.528;9.234;2023-03-23T01:50:06;17.50;94.10
40670;DHT22;26355;45.528;9.234;2023-03-23T01:52:33;17.50;94.10
40670;DHT22;26355;45.528;9.234;2023-03-23T01:54:59;17.40;94.20
40670;DHT22;26355;45.528;9.234;2023-03-23T01:57:26;17.40;94.20
40670;DHT22;26355;45.528;9.234;2023-03-23T01:59:53;17.50;94.30
40670;DHT22;26355;45.528;9.234;2023-03-23T02:02:22;17.40;94.40
40670;DHT22;26355;45.528;9.234;2023-03-23T02:04:49;17.50;94.50
40670;DHT22;26355;45.528;9.234;2023-03-23T02:07:18;17.40;94.50
40670;DHT22;26355;45.528;9.234;2023-03-23T02:09:45;17.40;94.60
40670;DHT22;26355;45.528;9.234;2023-03-23T02:12:10;17.40;94.60
40670;DHT22;26355;45.528;9.234;2023-03-23T02:14:36;17.40;94.70
40670;DHT22;26355;45.528;9.234;2023-03-23T02:30:48;17.20;95.10
40670;DHT22;26355;45.528;9.234;2023-03-23T02:33:27;17.20;95.20
40670;DHT22;26355;45.528;9.234;2023-03-23T02:41:41;17.20;95.30
40670;DHT22;26355;45.528;9.234;2023-03-23T02:44:08;17.20;95.30
40670;DHT22;26355;45.528;9.234;2023-03-23T02:46:35;17.20;95.40
40670;DHT22;26355;45.528;9.234;2023-03-23T02:49:02;17.10;95.40
40670;DHT22;26355;45.528;9.234;2023-03-23T02:51:29;17.20;95.50
40670;DHT22;26355;45.528;9.234;2023-03-23T02:53:56;17.10;95.50
40670;DHT22;26355;45.528;9.234;2023-03-23T02:56:24;17.10;95.50
40670;DHT22;26355;45.528;9.234;2023-03-23T02:58:50;17.10;95.50
40670;DHT22;26355;45.528;9.234;2023-03-23T03:03:52;17.10;95.70
40670;DHT22;26355;45.528;9.234;2023-03-23T03:09:01;17.10;95.70
40670;DHT22;26355;45.528;9.234;2023-03-23T03:11:31;17.10;95.80
40670;DHT22;26355;45.528;9.234;2023-03-23T03:14:08;17.00;95.80
40670;DHT22;26355;45.528;9.234;2023-03-23T03:16:49;17.00;96.00
40670;DHT22;26355;45.528;9.234;2023-03-23T03:21:47;17.10;96.00
40670;DHT22;26355;45.528;9.234;2023-03-23T03:24:17;17.10;96.10
40670;DHT22;26355;45.528;9.234;2023-03-23T03:26:46;17.00;96.20
40670;DHT22;26355;45.528;9.234;2023-03-23T03:29:27;17.10;96.30
40670;DHT22;26355;45.528;9.234;2023-03-23T03:31:56;17.00;96.30
40670;DHT22;26355;45.528;9.234;2023-03-23T03:34:22;17.10;96.40
40670;DHT22;26355;45.528;9.234;2023-03-23T03:36:51;17.10;96.50
40670;DHT22;26355;45.528;9.234;2023-03-23T03:39:17;17.00;96.60
40670;DHT22;26355;45.528;9.234;2023-03-23T03:41:45;17.00;96.70
40670;DHT22;26355;45.528;9.234;2023-03-23T03:44:11;17.00;96.70
40670;DHT22;26355;45.528;9.234;2023-03-23T03:46:37;17.00;96.80
40670;DHT22;26355;45.528;9.234;2023-03-23T03:49:06;17.00;96.80
40670;DHT22;26355;45.528;9.234;2023-03-23T03:51:33;17.00;96.90
40670;DHT22;26355;45.528;9.234;2023-03-23T03:53:59;17.00;96.90
40670;DHT22;26355;45.528;9.234;2023-03-23T03:56:25;17.10;97.00
40670;DHT22;26355;45.528;9.234;2023-03-23T03:58:52;17.10;97.00
40670;DHT22;26355;45.528;9.234;2023-03-23T04:01:21;17.00;97.10
40670;DHT22;26355;45.528;9.234;2023-03-23T04:03:50;17.00;97.20
40670;DHT22;26355;45.528;9.234;2023-03-23T04:06:17;17.00;97.30
40670;DHT22;26355;45.528;9.234;2023-03-23T04:08:43;17.00;97.30
40670;DHT22;26355;45.528;9.234;2023-03-23T04:11:11;17.00;97.40
40670;DHT22;26355;45.528;9.234;2023-03-23T04:13:37;16.90;97.50
40670;DHT22;26355;45.528;9.234;2023-03-23T04:16:03;16.80;97.90
40670;DHT22;26355;45.528;9.234;2023-03-23T04:18:29;16.80;97.60
40670;DHT22;26355;45.528;9.234;2023-03-23T04:20:57;16.80;97.70
40670;DHT22;26355;45.528;9.234;2023-03-23T04:23:26;16.80;97.90
40670;DHT22;26355;45.528;9.234;2023-03-23T04:25:52;16.80;98.00
40670;DHT22;26355;45.528;9.234;2023-03-23T04:28:19;16.80;98.50
40670;DHT22;26355;45.528;9.234;2023-03-23T04:30:49;16.80;98.10
40670;DHT22;26355;45.528;9.234;2023-03-23T04:33:18;16.70;98.30
40670;DHT22;26355;45.528;9.234;2023-03-23T04:35:45;16.80;98.40
40670;DHT22;26355;45.528;9.234;2023-03-23T04:38:12;16.70;98.50
40670;DHT22;26355;45.528;9.234;2023-03-23T04:40:39;16.70;98.60
40670;DHT22;26355;45.528;9.234;2023-03-23T04:43:06;16.70;98.70
40670;DHT22;26355;45.528;9.234;2023-03-23T04:45:33;16.70;98.80
40670;DHT22;26355;45.528;9.234;2023-03-23T04:47:59;16.70;98.90
40670;DHT22;26355;45.528;9.234;2023-03-23T04:50:28;16.70;99.00
40670;DHT22;26355;45.528;9.234;2023-03-23T04:52:56;16.70;99.10
40670;DHT22;26355;45.528;9.234;2023-03-23T04:55:24;16.80;99.20
40670;DHT22;26355;45.528;9.234;2023-03-23T04:57:50;16.70;99.30
40670;DHT22;26355;45.528;9.234;2023-03-23T05:00:16;16.70;99.90
40670;DHT22;26355;45.528;9.234;2023-03-23T05:02:44;16.80;99.50
40670;DHT22;26355;45.528;9.234;2023-03-23T05:05:13;16.70;99.60
40670;DHT22;26355;45.528;9.234;2023-03-23T05:07:39;16.70;99.70
40670;DHT22;26355;45.528;9.234;2023-03-23T05:10:06;16.70;99.90
40670;DHT22;26355;45.528;9.234;2023-03-23T05:12:33;16.70;99.90
40670;DHT22;26355;45.528;9.234;2023-03-23T05:14:58;16.70;99.90
40670;DHT22;26355;45.528;9.234;2023-03-23T05:17:24;16.70;99.90
40670;DHT22;26355;45.528;9.234;2023-03-23T05:19:53;16.70;99.90
40670;DHT22;26355;45.528;9.234;2023-03-23T05:22:19;16.70;99.90
40670;DHT22;26355;45.528;9.234;2023-03-23T05:24:47;16.70;99.90
40670;DHT22;26355;45.528;9.234;2023-03-23T05:27:13;16.70;99.90
40670;DHT22;26355;45.528;9.234;2023-03-23T05:29:40;16.60;99.90
40670;DHT22;26355;45.528;9.234;2023-03-23T05:32:07;16.60;99.90
40670;DHT22;26355;45.528;9.234;2023-03-23T05:34:34;16.60;99.90
40670;DHT22;26355;45.528;9.234;2023-03-23T05:37:00;16.50;99.90
40670;DHT22;26355;45.528;9.234;2023-03-23T05:39:28;16.60;99.90
40670;DHT22;26355;45.528;9.234;2023-03-23T05:41:55;16.60;99.90
40670;DHT22;26355;45.528;9.234;2023-03-23T05:44:20;16.60;99.90
40670;DHT22;26355;45.528;9.234;2023-03-23T05:46:46;16.60;99.90
40670;DHT22;26355;45.528;9.234;2023-03-23T05:49:13;16.50;99.90
40670;DHT22;26355;45.528;9.234;2023-03-23T05:51:39;16.60;99.90
40670;DHT22;26355;45.528;9.234;2023-03-23T05:54:05;16.60;99.90
40670;DHT22;26355;45.528;9.234;2023-03-23T05:56:30;16.60;99.90
40670;DHT22;26355;45.528;9.234;2023-03-23T05:58:59;16.70;99.90
40670;DHT22;26355;45.528;9.234;2023-03-23T06:01:25;16.70;99.90
40670;DHT22;26355;45.528;9.234;2023-03-23T06:03:51;16.70;99.90
40670;DHT22;26355;45.528;9.234;2023-03-23T06:06:20;16.80;99.90
40670;DHT22;26355;45.528;9.234;2023-03-23T06:08:46;16.80;99.90
40670;DHT22;26355;45.528;9.234;2023-03-23T06:11:11;16.80;99.90
40670;DHT22;26355;45.528;9.234;2023-03-23T06:13:37;16.70;99.90
40670;DHT22;26355;45.528;9.234;2023-03-23T06:16:03;16.70;99.90
40670;DHT22;26355;45.528;9.234;2023-03-23T06:18:29;16.70;99.90
40670;DHT22;26355;45.528;9.234;2023-03-23T06:20:59;16.70;99.90
40670;DHT22;26355;45.528;9.234;2023-03-23T06:23:25;16.80;99.90
40670;DHT22;26355;45.528;9.234;2023-03-23T06:25:55;16.80;99.90
40670;DHT22;26355;45.528;9.234;2023-03-23T06:28:22;16.90;99.90
40670;DHT22;26355;45.528;9.234;2023-03-23T06:30:48;16.90;99.90
40670;DHT22;26355;45.528;9.234;2023-03-23T06:33:15;16.90;99.90
40670;DHT22;26355;45.528;9.234;2023-03-23T06:35:40;16.90;99.90
40670;DHT22;26355;45.528;9.234;2023-03-23T06:38:06;16.90;99.90
40670;DHT22;26355;45.528;9.234;2023-03-23T06:40:31;16.90;99.90
40670;DHT22;26355;45.528;9.234;2023-03-23T06:42:57;16.90;99.90
40670;DHT22;26355;45.528;9.234;2023-03-23T06:45:24;17.00;99.90
40670;DHT22;26355;45.528;9.234;2023-03-23T06:47:50;16.90;99.90
40670;DHT22;26355;45.528;9.234;2023-03-23T06:50:16;16.90;99.90
40670;DHT22;26355;45.528;9.234;2023-03-23T06:52:46;16.80;99.90
40670;DHT22;26355;45.528;9.234;2023-03-23T06:55:12;16.80;99.90
40670;DHT22;26355;45.528;9.234;2023-03-23T06:57:38;16.90;99.90
40670;DHT22;26355;45.528;9.234;2023-03-23T07:00:05;16.80;99.90
40670;DHT22;26355;45.528;9.234;2023-03-23T07:02:35;16.80;99.90
40670;DHT22;26355;45.528;9.234;2023-03-23T07:05:01;16.80;99.90
40670;DHT22;26355;45.528;9.234;2023-03-23T07:07:26;17.00;99.90
40670;DHT22;26355;45.528;9.234;2023-03-23T07:09:52;17.20;99.90
40670;DHT22;26355;45.528;9.234;2023-03-23T07:12:18;17.30;99.90
40670;DHT22;26355;45.528;9.234;2023-03-23T07:14:43;17.30;99.90
40670;DHT22;26355;45.528;9.234;2023-03-23T07:17:09;17.40;99.90
40670;DHT22;26355;45.528;9.234;2023-03-23T07:19:34;17.20;99.90
40670;DHT22;26355;45.528;9.234;2023-03-23T07:22:03;17.30;99.90
40670;DHT22;26355;45.528;9.234;2023-03-23T07:24:29;17.30;99.90
40670;DHT22;26355;45.528;9.234;2023-03-23T07:26:55;17.30;99.90
40670;DHT22;26355;45.528;9.234;2023-03-23T07:29:21;17.20;99.90
40670;DHT22;26355;45.528;9.234;2023-03-23T07:31:47;17.00;99.90
40670;DHT22;26355;45.528;9.234;2023-03-23T07:34:12;16.90;99.90
40670;DHT22;26355;45.528;9.234;2023-03-23T07:36:38;16.70;99.90
40670;DHT22;26355;45.528;9.234;2023-03-23T07:39:05;16.60;99.90
40670;DHT22;26355;45.528;9.234;2023-03-23T07:41:34;16.50;99.90
40670;DHT22;26355;45.528;9.234;2023-03-23T07:44:00;16.40;99.90
40670;DHT22;26355;45.528;9.234;2023-03-23T07:46:25;16.40;99.90
40670;DHT22;26355;45.528;9.234;2023-03-23T07:48:51;16.50;99.90
40670;DHT22;26355;45.528;9.234;2023-03-23T07:51:17;16.50;99.90
40670;DHT22;26355;45.528;9.234;2023-03-23T07:53:43;16.60;99.90
40670;DHT22;26355;45.528;9.234;2023-03-23T07:56:12;16.70;99.90
40670;DHT22;26355;45.528;9.234;2023-03-23T07:58:42;16.80;99.90
40670;DHT22;26355;45.528;9.234;2023-03-23T08:01:10;16.80;99.90
40670;DHT22;26355;45.528;9.234;2023-03-23T08:03:36;16.90;99.90
40670;DHT22;26355;45.528;9.234;2023-03-23T08:06:02;16.90;99.90
40670;DHT22;26355;45.528;9.234;2023-03-23T08:08:28;16.90;99.90
40670;DHT22;26355;45.528;9.234;2023-03-23T08:10:54;16.80;99.90
40670;DHT22;26355;45.528;9.234;2023-03-23T08:13:19;16.90;99.90
40670;DHT22;26355;45.528;9.234;2023-03-23T08:15:45;17.10;99.90
40670;DHT22;26355;45.528;9.234;2023-03-23T08:18:11;17.00;99.90
40670;DHT22;26355;45.528;9.234;2023-03-23T08:20:37;17.10;99.90
40670;DHT22;26355;45.528;9.234;2023-03-23T08:23:03;17.20;99.90
40670;DHT22;26355;45.528;9.234;2023-03-23T08:25:30;17.30;99.90
40670;DHT22;26355;45.528;9.234;2023-03-23T08:27:59;17.50;99.90
40670;DHT22;26355;45.528;9.234;2023-03-23T08:30:27;17.40;99.90
40670;DHT22;26355;45.528;9.234;2023-03-23T08:32:54;17.50;99.90
40670;DHT22;26355;45.528;9.234;2023-03-23T08:35:20;17.60;99.90
40670;DHT22;26355;45.528;9.234;2023-03-23T08:37:47;17.70;99.90
40670;DHT22;26355;45.528;9.234;2023-03-23T08:40:17;17.70;99.90
40670;DHT22;26355;45.528;9.234;2023-03-23T08:42:45;17.80;99.90
40670;DHT22;26355;45.528;9.234;2023-03-23T08:45:13;17.70;99.90
40670;DHT22;26355;45.528;9.234;2023-03-23T08:47:40;17.70;99.90
40670;DHT22;26355;45.528;9.234;2023-03-23T08:50:13;17.80;99.90
40670;DHT22;26355;45.528;9.234;2023-03-23T08:52:39;17.80;99.90
40670;DHT22;26355;45.528;9.234;2023-03-23T08:55:05;17.80;99.90
40670;DHT22;26355;45.528;9.234;2023-03-23T08:57:31;17.80;99.90
40670;DHT22;26355;45.528;9.234;2023-03-23T08:59:56;18.00;99.90
40670;DHT22;26355;45.528;9.234;2023-03-23T09:02:39;18.20;99.90
40670;DHT22;26355;45.528;9.234;2023-03-23T09:05:05;18.60;99.90
40670;DHT22;26355;45.528;9.234;2023-03-23T09:07:32;18.80;99.90
40670;DHT22;26355;45.528;9.234;2023-03-23T09:09:57;19.20;99.90
40670;DHT22;26355;45.528;9.234;2023-03-23T09:12:23;19.40;99.90
40670;DHT22;26355;45.528;9.234;2023-03-23T09:14:49;19.30;99.90
40670;DHT22;26355;45.528;9.234;2023-03-23T09:17:14;19.10;99.90
40670;DHT22;26355;45.528;9.234;2023-03-23T09:19:40;19.20;99.90
40670;DHT22;26355;45.528;9.234;2023-03-23T09:22:06;19.50;99.90
40670;DHT22;26355;45.528;9.234;2023-03-23T09:24:33;19.70;99.90
40670;DHT22;26355;45.528;9.234;2023-03-23T09:26:59;19.90;99.90
40670;DHT22;26355;45.528;9.234;2023-03-23T09:29:26;20.20;99.90
40670;DHT22;26355;45.528;9.234;2023-03-23T09:31:52;20.30;99.90
40670;DHT22;26355;45.528;9.234;2023-03-23T09:34:18;20.30;99.90
40670;DHT22;26355;45.528;9.234;2023-03-23T09:36:44;20.40;99.90
40670;DHT22;26355;45.528;9.234;2023-03-23T09:39:10;20.20;99.90
40670;DHT22;26355;45.528;9.234;2023-03-23T09:41:47;20.20;99.90
40670;DHT22;26355;45.528;9.234;2023-03-23T09:47:04;20.50;99.90
40670;DHT22;26355;45.528;9.234;2023-03-23T09:49:33;20.50;99.80
40670;DHT22;26355;45.528;9.234;2023-03-23T09:52:12;20.40;99.90
40670;DHT22;26355;45.528;9.234;2023-03-23T09:54:41;20.60;99.90
40670;DHT22;26355;45.528;9.234;2023-03-23T09:59:57;20.50;99.90
40670;DHT22;26355;45.528;9.234;2023-03-23T10:07:50;20.50;99.70
40670;DHT22;26355;45.528;9.234;2023-03-23T10:10:16;20.80;99.70
40670;DHT22;26355;45.528;9.234;2023-03-23T10:13:02;20.80;99.50
40670;DHT22;26355;45.528;9.234;2023-03-23T10:15:33;21.00;99.50
40670;DHT22;26355;45.528;9.234;2023-03-23T10:21:20;21.00;98.90
40670;DHT22;26355;45.528;9.234;2023-03-23T10:26:35;21.00;98.60
40670;DHT22;26355;45.528;9.234;2023-03-23T10:29:23;20.80;98.80
40670;DHT22;26355;45.528;9.234;2023-03-23T10:31:59;20.90;99.20
40670;DHT22;26355;45.528;9.234;2023-03-23T10:34:34;21.10;99.10
40670;DHT22;26355;45.528;9.234;2023-03-23T10:37:11;21.10;98.90
40670;DHT22;26355;45.528;9.234;2023-03-23T10:39:44;21.30;98.70
40670;DHT22;26355;45.528;9.234;2023-03-23T10:42:12;21.40;98.70
40670;DHT22;26355;45.528;9.234;2023-03-23T10:44:37;21.50;98.60
40670;DHT22;26355;45.528;9.234;2023-03-23T10:47:06;21.50;98.60
40670;DHT22;26355;45.528;9.234;2023-03-23T10:49:47;21.40;98.30
40670;DHT22;26355;45.528;9.234;2023-03-23T10:57:27;21.40;98.50
40670;DHT22;26355;45.528;9.234;2023-03-23T11:00:06;21.50;98.30
40670;DHT22;26355;45.528;9.234;2023-03-23T11:02:44;21.50;98.10
40670;DHT22;26355;45.528;9.234;2023-03-23T11:05:20;21.40;98.00
40670;DHT22;26355;45.528;9.234;2023-03-23T11:07:53;21.30;98.30
40670;DHT22;26355;45.528;9.234;2023-03-23T11:10:49;21.20;98.40
40670;DHT22;26355;45.528;9.234;2023-03-23T11:13:17;21.10;98.60
40670;DHT22;26355;45.528;9.234;2023-03-23T11:15:44;21.00;98.60
40670;DHT22;26355;45.528;9.234;2023-03-23T11:18:13;21.10;98.70
40670;DHT22;26355;45.528;9.234;2023-03-23T11:20:46;21.30;98.90
40670;DHT22;26355;45.528;9.234;2023-03-23T11:23:23;21.50;99.00
40670;DHT22;26355;45.528;9.234;2023-03-23T11:28:32;21.80;98.50
40670;DHT22;26355;45.528;9.234;2023-03-23T11:31:00;21.80;98.20
40670;DHT22;26355;45.528;9.234;2023-03-23T11:33:37;22.00;98.40
40670;DHT22;26355;45.528;9.234;2023-03-23T11:36:06;22.10;98.10
40670;DHT22;26355;45.528;9.234;2023-03-23T11:38:32;22.20;98.20
40670;DHT22;26355;45.528;9.234;2023-03-23T11:40:59;22.10;98.40
40670;DHT22;26355;45.528;9.234;2023-03-23T11:43:25;22.10;98.20
40670;DHT22;26355;45.528;9.234;2023-03-23T11:49:00;21.70;97.80
40670;DHT22;26355;45.528;9.234;2023-03-23T11:51:46;21.40;98.20
40670;DHT22;26355;45.528;9.234;2023-03-23T11:54:19;21.10;98.50
40670;DHT22;26355;45.528;9.234;2023-03-23T11:56:47;21.30;98.50
40670;DHT22;26355;45.528;9.234;2023-03-23T11:59:16;21.30;98.30
40670;DHT22;26355;45.528;9.234;2023-03-23T12:01:56;21.60;98.50
40670;DHT22;26355;45.528;9.234;2023-03-23T12:12:37;22.00;98.20
40670;DHT22;26355;45.528;9.234;2023-03-23T12:15:30;22.20;98.00
40670;DHT22;26355;45.528;9.234;2023-03-23T12:20:57;22.60;97.50
40670;DHT22;26355;45.528;9.234;2023-03-23T12:23:42;22.60;97.40
40670;DHT22;26355;45.528;9.234;2023-03-23T12:36:55;22.60;97.50
40670;DHT22;26355;45.528;9.234;2023-03-23T12:42:31;22.50;97.30
40670;DHT22;26355;45.528;9.234;2023-03-23T12:47:40;22.50;97.50
40670;DHT22;26355;45.528;9.234;2023-03-23T12:55:18;22.40;97.60
40670;DHT22;26355;45.528;9.234;2023-03-23T13:03:28;22.60;97.10
40670;DHT22;26355;45.528;9.234;2023-03-23T13:06:18;22.70;96.90
40670;DHT22;26355;45.528;9.234;2023-03-23T13:11:35;22.70;97.00
40670;DHT22;26355;45.528;9.234;2023-03-23T13:22:51;22.70;96.50
40670;DHT22;26355;45.528;9.234;2023-03-23T13:28:18;22.50;96.70
40670;DHT22;26355;45.528;9.234;2023-03-23T13:33:28;22.50;96.50
40670;DHT22;26355;45.528;9.234;2023-03-23T13:35:54;22.50;96.80
40670;DHT22;26355;45.528;9.234;2023-03-23T13:38:26;22.50;97.00
40670;DHT22;26355;45.528;9.234;2023-03-23T13:40:54;22.40;97.10
40670;DHT22;26355;45.528;9.234;2023-03-23T13:43:34;22.50;97.10
40670;DHT22;26355;45.528;9.234;2023-03-23T13:48:49;22.50;96.80
40670;DHT22;26355;45.528;9.234;2023-03-23T13:52:06;22.50;97.10
40670;DHT22;26355;45.528;9.234;2023-03-23T13:54:41;22.60;96.80
40670;DHT22;26355;45.528;9.234;2023-03-23T14:00:33;22.80;96.60
40670;DHT22;26355;45.528;9.234;2023-03-23T14:05:43;23.00;96.70
40670;DHT22;26355;45.528;9.234;2023-03-23T14:08:11;23.10;96.70
40670;DHT22;26355;45.528;9.234;2023-03-23T14:11:01;23.10;96.40
40670;DHT22;26355;45.528;9.234;2023-03-23T14:13:44;23.00;95.70
40670;DHT22;26355;45.528;9.234;2023-03-23T14:16:21;22.70;95.80
40670;DHT22;26355;45.528;9.234;2023-03-23T14:18:59;22.70;96.00
40670;DHT22;26355;45.528;9.234;2023-03-23T14:21:55;22.60;96.70
40670;DHT22;26355;45.528;9.234;2023-03-23T14:27:15;22.40;97.00
40670;DHT22;26355;45.528;9.234;2023-03-23T14:29:41;22.40;97.00
40670;DHT22;26355;45.528;9.234;2023-03-23T14:32:10;22.60;96.90
40670;DHT22;26355;45.528;9.234;2023-03-23T14:34:37;22.70;96.90
40670;DHT22;26355;45.528;9.234;2023-03-23T14:37:03;22.90;97.00
40670;DHT22;26355;45.528;9.234;2023-03-23T14:39:31;23.00;96.80
40670;DHT22;26355;45.528;9.234;2023-03-23T14:42:06;22.90;96.50
40670;DHT22;26355;45.528;9.234;2023-03-23T14:44:40;23.00;96.40
40670;DHT22;26355;45.528;9.234;2023-03-23T14:47:19;23.00;96.60
40670;DHT22;26355;45.528;9.234;2023-03-23T14:49:45;23.00;96.30
40670;DHT22;26355;45.528;9.234;2023-03-23T14:52:16;23.10;96.40
40670;DHT22;26355;45.528;9.234;2023-03-23T14:54:43;22.90;96.10
40670;DHT22;26355;45.528;9.234;2023-03-23T14:57:12;22.80;96.10
40670;DHT22;26355;45.528;9.234;2023-03-23T14:59:46;23.00;96.30
40670;DHT22;26355;45.528;9.234;2023-03-23T15:02:33;22.90;96.10
40670;DHT22;26355;45.528;9.234;2023-03-23T15:05:09;23.00;95.80
40670;DHT22;26355;45.528;9.234;2023-03-23T15:07:36;22.90;96.30
40670;DHT22;26355;45.528;9.234;2023-03-23T15:10:06;22.90;96.10
40670;DHT22;26355;45.528;9.234;2023-03-23T15:12:32;22.90;96.20
40670;DHT22;26355;45.528;9.234;2023-03-23T15:15:00;22.90;96.10
40670;DHT22;26355;45.528;9.234;2023-03-23T15:17:29;22.80;96.10
40670;DHT22;26355;45.528;9.234;2023-03-23T15:19:56;22.90;96.20
40670;DHT22;26355;45.528;9.234;2023-03-23T15:22:30;22.90;96.30
40670;DHT22;26355;45.528;9.234;2023-03-23T15:27:43;22.90;96.10
40670;DHT22;26355;45.528;9.234;2023-03-23T15:30:36;23.00;96.00
40670;DHT22;26355;45.528;9.234;2023-03-23T15:33:12;23.00;96.10
40670;DHT22;26355;45.528;9.234;2023-03-23T15:35:41;23.00;95.90
40670;DHT22;26355;45.528;9.234;2023-03-23T15:38:24;22.90;95.90
40670;DHT22;26355;45.528;9.234;2023-03-23T15:40:52;22.80;95.90
40670;DHT22;26355;45.528;9.234;2023-03-23T15:48:46;22.70;96.40
40670;DHT22;26355;45.528;9.234;2023-03-23T15:51:12;22.60;96.20
40670;DHT22;26355;45.528;9.234;2023-03-23T15:53:39;22.70;96.20
40670;DHT22;26355;45.528;9.234;2023-03-23T15:56:07;22.70;96.20
40670;DHT22;26355;45.528;9.234;2023-03-23T15:58:35;22.70;96.20
40670;DHT22;26355;45.528;9.234;2023-03-23T16:01:02;22.80;96.20
40670;DHT22;26355;45.528;9.234;2023-03-23T16:03:36;22.60;96.10
40670;DHT22;26355;45.528;9.234;2023-03-23T16:06:03;22.60;96.30
40670;DHT22;26355;45.528;9.234;2023-03-23T16:08:29;22.50;96.40
40670;DHT22;26355;45.528;9.234;2023-03-23T16:10:54;22.40;96.90
40670;DHT22;26355;45.528;9.234;2023-03-23T16:13:20;22.40;96.70
40670;DHT22;26355;45.528;9.234;2023-03-23T16:15:47;22.40;96.70
40670;DHT22;26355;45.528;9.234;2023-03-23T16:18:21;22.40;96.70
40670;DHT22;26355;45.528;9.234;2023-03-23T16:20:48;22.50;96.70
40670;DHT22;26355;45.528;9.234;2023-03-23T16:23:14;22.50;96.70
40670;DHT22;26355;45.528;9.234;2023-03-23T16:25:39;22.40;96.80
40670;DHT22;26355;45.528;9.234;2023-03-23T16:28:07;22.40;96.80
40670;DHT22;26355;45.528;9.234;2023-03-23T16:30:34;22.30;97.10
40670;DHT22;26355;45.528;9.234;2023-03-23T16:33:02;22.20;97.20
40670;DHT22;26355;45.528;9.234;2023-03-23T16:35:28;22.10;97.30
40670;DHT22;26355;45.528;9.234;2023-03-23T16:37:55;22.10;97.40
40670;DHT22;26355;45.528;9.234;2023-03-23T16:40:22;22.00;97.50
40670;DHT22;26355;45.528;9.234;2023-03-23T16:42:48;22.00;97.50
40670;DHT22;26355;45.528;9.234;2023-03-23T16:45:16;22.00;97.70
40670;DHT22;26355;45.528;9.234;2023-03-23T16:47:42;21.90;97.80
40670;DHT22;26355;45.528;9.234;2023-03-23T16:50:11;21.80;97.90
40670;DHT22;26355;45.528;9.234;2023-03-23T16:52:38;21.70;98.00
40670;DHT22;26355;45.528;9.234;2023-03-23T16:55:04;21.60;98.00
40670;DHT22;26355;45.528;9.234;2023-03-23T16:57:32;21.50;98.20
40670;DHT22;26355;45.528;9.234;2023-03-23T16:59:59;21.50;98.20
40670;DHT22;26355;45.528;9.234;2023-03-23T17:02:25;21.40;98.50
40670;DHT22;26355;45.528;9.234;2023-03-23T17:04:50;21.40;98.40
40670;DHT22;26355;45.528;9.234;2023-03-23T17:07:16;21.30;98.60
40670;DHT22;26355;45.528;9.234;2023-03-23T17:09:42;21.30;98.60
40670;DHT22;26355;45.528;9.234;2023-03-23T17:12:08;21.40;98.60
40670;DHT22;26355;45.528;9.234;2023-03-23T17:14:34;21.40;98.60
40670;DHT22;26355;45.528;9.234;2023-03-23T17:16:59;21.30;98.60
40670;DHT22;26355;45.528;9.234;2023-03-23T17:19:25;21.40;98.70
40670;DHT22;26355;45.528;9.234;2023-03-23T17:21:51;21.40;98.70
40670;DHT22;26355;45.528;9.234;2023-03-23T17:24:17;21.40;98.80
40670;DHT22;26355;45.528;9.234;2023-03-23T17:26:43;21.40;98.70
40670;DHT22;26355;45.528;9.234;2023-03-23T17:29:09;21.40;98.90
40670;DHT22;26355;45.528;9.234;2023-03-23T17:31:35;21.40;98.60
40670;DHT22;26355;45.528;9.234;2023-03-23T17:34:00;21.40;98.50
40670;DHT22;26355;45.528;9.234;2023-03-23T17:36:26;21.30;98.50
40670;DHT22;26355;45.528;9.234;2023-03-23T17:38:52;21.20;98.50
40670;DHT22;26355;45.528;9.234;2023-03-23T17:41:18;21.20;98.50
40670;DHT22;26355;45.528;9.234;2023-03-23T17:43:46;21.20;98.70
40670;DHT22;26355;45.528;9.234;2023-03-23T17:46:12;21.10;98.40
40670;DHT22;26355;45.528;9.234;2023-03-23T17:48:38;21.10;98.70
40670;DHT22;26355;45.528;9.234;2023-03-23T17:51:04;21.00;98.50
40670;DHT22;26355;45.528;9.234;2023-03-23T17:53:32;21.10;98.50